sensor_id;sensor_type;location;lat;lon;timestamp;temperature;humidity
68766;DHT22;55756;45.582;11.484;2022-12-11T00:01:59;8.90;90.80
68766;DHT22;55756;45.582;11.484;2022-12-11T00:04:25;9.00;90.70
68766;DHT22;55756;45.582;11.484;2022-12-11T00:06:51;9.00;90.50
68766;DHT22;55756;45.582;11.484;2022-12-11T00:09:17;8.90;90.50
68766;DHT22;55756;45.582;11.484;2022-12-11T00:11:42;8.90;90.30
68766;DHT22;55756;45.582;11.484;2022-12-11T00:14:09;8.90;90.60
68766;DHT22;55756;45.582;11.484;2022-12-11T00:16:34;9.00;90.50
68766;DHT22;55756;45.582;11.484;2022-12-11T00:19:00;9.10;90.00
68766;DHT22;55756;45.582;11.484;2022-12-11T00:21:26;9.10;89.80
68766;DHT22;55756;45.582;11.484;2022-12-11T00:23:51;9.20;89.70
68766;DHT22;55756;45.582;11.484;2022-12-11T00:26:17;9.20;89.50
68766;DHT22;55756;45.582;11.484;2022-12-11T00:28:43;9.20;89.40
68766;DHT22;55756;45.582;11.484;2022-12-11T00:31:13;9.20;89.20
68766;DHT22;55756;45.582;11.484;2022-12-11T00:33:40;9.10;88.90
68766;DHT22;55756;45.582;11.484;2022-12-11T00:36:13;9.10;88.70
68766;DHT22;55756;45.582;11.484;2022-12-11T00:38:40;9.10;88.70
68766;DHT22;55756;45.582;11.484;2022-12-11T00:41:05;9.10;88.30
68766;DHT22;55756;45.582;11.484;2022-12-11T00:43:31;9.10;88.10
68766;DHT22;55756;45.582;11.484;2022-12-11T00:45:57;9.10;87.90
68766;DHT22;55756;45.582;11.484;2022-12-11T00:48:22;9.20;87.70
68766;DHT22;55756;45.582;11.484;2022-12-11T00:50:48;9.20;87.60
68766;DHT22;55756;45.582;11.484;2022-12-11T00:53:14;9.20;87.60
68766;DHT22;55756;45.582;11.484;2022-12-11T00:55:40;9.10;87.70
68766;DHT22;55756;45.582;11.484;2022-12-11T00:58:06;9.10;87.80
68766;DHT22;55756;45.582;11.484;2022-12-11T01:00:32;9.10;88.00
68766;DHT22;55756;45.582;11.484;2022-12-11T01:02:58;9.10;88.00
68766;DHT22;55756;45.582;11.484;2022-12-11T01:05:23;9.10;88.20
68766;DHT22;55756;45.582;11.484;2022-12-11T01:07:49;9.00;88.30
68766;DHT22;55756;45.582;11.484;2022-12-11T01:10:15;8.90;88.40
68766;DHT22;55756;45.582;11.484;2022-12-11T01:15:23;9.00;88.30
68766;DHT22;55756;45.582;11.484;2022-12-11T01:17:49;9.10;88.50
68766;DHT22;55756;45.582;11.484;2022-12-11T01:20:15;9.00;88.40
68766;DHT22;55756;45.582;11.484;2022-12-11T01:22:40;9.00;88.50
68766;DHT22;55756;45.582;11.484;2022-12-11T01:25:06;9.00;88.60
68766;DHT22;55756;45.582;11.484;2022-12-11T01:27:34;9.00;88.50
68766;DHT22;55756;45.582;11.484;2022-12-11T01:30:00;8.90;88.60
68766;DHT22;55756;45.582;11.484;2022-12-11T01:32:26;8.90;88.80
68766;DHT22;55756;45.582;11.484;2022-12-11T01:34:52;8.90;89.00
68766;DHT22;55756;45.582;11.484;2022-12-11T01:37:17;8.90;89.10
68766;DHT22;55756;45.582;11.484;2022-12-11T01:39:43;8.90;88.90
68766;DHT22;55756;45.582;11.484;2022-12-11T01:42:09;8.90;89.20
68766;DHT22;55756;45.582;11.484;2022-12-11T01:47:04;8.80;89.40
68766;DHT22;55756;45.582;11.484;2022-12-11T01:49:30;8.80;89.50
68766;DHT22;55756;45.582;11.484;2022-12-11T01:52:05;8.80;89.40
68766;DHT22;55756;45.582;11.484;2022-12-11T01:54:30;8.70;89.50
68766;DHT22;55756;45.582;11.484;2022-12-11T01:56:57;8.80;89.70
68766;DHT22;55756;45.582;11.484;2022-12-11T01:59:25;8.90;89.80
68766;DHT22;55756;45.582;11.484;2022-12-11T02:01:53;8.80;89.40
68766;DHT22;55756;45.582;11.484;2022-12-11T02:04:20;8.80;89.80
68766;DHT22;55756;45.582;11.484;2022-12-11T02:06:48;8.70;90.20
68766;DHT22;55756;45.582;11.484;2022-12-11T02:09:22;8.80;90.00
68766;DHT22;55756;45.582;11.484;2022-12-11T02:12:01;8.90;89.90
68766;DHT22;55756;45.582;11.484;2022-12-11T02:14:46;8.90;90.00
68766;DHT22;55756;45.582;11.484;2022-12-11T02:30:16;9.00;89.70
68766;DHT22;55756;45.582;11.484;2022-12-11T02:32:44;8.90;89.50
68766;DHT22;55756;45.582;11.484;2022-12-11T02:37:38;8.90;89.50
68766;DHT22;55756;45.582;11.484;2022-12-11T02:40:06;8.90;89.40
68766;DHT22;55756;45.582;11.484;2022-12-11T02:42:33;8.90;89.50
68766;DHT22;55756;45.582;11.484;2022-12-11T02:45:00;8.80;89.50
68766;DHT22;55756;45.582;11.484;2022-12-11T02:47:27;9.00;89.40
68766;DHT22;55756;45.582;11.484;2022-12-11T02:49:54;8.90;89.30
68766;DHT22;55756;45.582;11.484;2022-12-11T02:52:20;8.80;89.40
68766;DHT22;55756;45.582;11.484;2022-12-11T02:54:47;8.70;89.20
68766;DHT22;55756;45.582;11.484;2022-12-11T02:57:15;8.80;89.40
68766;DHT22;55756;45.582;11.484;2022-12-11T02:59:42;8.80;89.20
68766;DHT22;55756;45.582;11.484;2022-12-11T03:02:09;8.80;89.20
68766;DHT22;55756;45.582;11.484;2022-12-11T03:04:35;8.80;89.10
68766;DHT22;55756;45.582;11.484;2022-12-11T03:07:02;8.80;89.20
68766;DHT22;55756;45.582;11.484;2022-12-11T03:09:39;8.90;89.00
68766;DHT22;55756;45.582;11.484;2022-12-11T03:12:06;8.90;89.00
68766;DHT22;55756;45.582;11.484;2022-12-11T03:14:34;8.90;88.80
68766;DHT22;55756;45.582;11.484;2022-12-11T03:19:36;8.90;88.80
68766;DHT22;55756;45.582;11.484;2022-12-11T03:22:20;8.80;88.60
68766;DHT22;55756;45.582;11.484;2022-12-11T03:24:49;8.90;88.60
68766;DHT22;55756;45.582;11.484;2022-12-11T03:29:43;8.80;88.60
68766;DHT22;55756;45.582;11.484;2022-12-11T03:32:11;8.80;88.70
68766;DHT22;55756;45.582;11.484;2022-12-11T03:34:43;8.90;88.60
68766;DHT22;55756;45.582;11.484;2022-12-11T03:37:10;8.90;88.40
68766;DHT22;55756;45.582;11.484;2022-12-11T03:39:38;8.80;88.90
68766;DHT22;55756;45.582;11.484;2022-12-11T03:42:05;8.80;89.20
68766;DHT22;55756;45.582;11.484;2022-12-11T03:44:31;8.80;89.10
68766;DHT22;55756;45.582;11.484;2022-12-11T03:46:57;8.80;89.20
68766;DHT22;55756;45.582;11.484;2022-12-11T03:49:25;8.80;89.00
68766;DHT22;55756;45.582;11.484;2022-12-11T03:51:52;8.90;88.90
68766;DHT22;55756;45.582;11.484;2022-12-11T03:54:19;8.80;89.00
68766;DHT22;55756;45.582;11.484;2022-12-11T03:56:45;8.70;89.10
68766;DHT22;55756;45.582;11.484;2022-12-11T03:59:11;8.70;89.00
68766;DHT22;55756;45.582;11.484;2022-12-11T04:01:37;8.70;89.00
68766;DHT22;55756;45.582;11.484;2022-12-11T04:04:02;8.80;88.80
68766;DHT22;55756;45.582;11.484;2022-12-11T04:06:28;8.70;89.10
68766;DHT22;55756;45.582;11.484;2022-12-11T04:08:54;8.60;89.60
68766;DHT22;55756;45.582;11.484;2022-12-11T04:11:20;8.60;89.70
68766;DHT22;55756;45.582;11.484;2022-12-11T04:14:05;8.60;89.60
68766;DHT22;55756;45.582;11.484;2022-12-11T04:16:49;8.30;89.20
68766;DHT22;55756;45.582;11.484;2022-12-11T04:19:15;8.20;87.70
68766;DHT22;55756;45.582;11.484;2022-12-11T04:21:59;8.10;86.80
68766;DHT22;55756;45.582;11.484;2022-12-11T04:24:43;7.90;85.20
68766;DHT22;55756;45.582;11.484;2022-12-11T04:27:09;7.80;85.30
68766;DHT22;55756;45.582;11.484;2022-12-11T04:29:34;7.70;85.00
68766;DHT22;55756;45.582;11.484;2022-12-11T04:32:00;7.50;83.60
68766;DHT22;55756;45.582;11.484;2022-12-11T04:34:26;7.20;83.60
68766;DHT22;55756;45.582;11.484;2022-12-11T04:36:51;7.00;83.30
68766;DHT22;55756;45.582;11.484;2022-12-11T04:39:17;6.90;84.00
68766;DHT22;55756;45.582;11.484;2022-12-11T04:41:43;6.90;84.20
68766;DHT22;55756;45.582;11.484;2022-12-11T04:44:08;6.90;84.30
68766;DHT22;55756;45.582;11.484;2022-12-11T04:46:34;6.80;83.80
68766;DHT22;55756;45.582;11.484;2022-12-11T04:49:00;6.70;83.80
68766;DHT22;55756;45.582;11.484;2022-12-11T04:51:26;6.60;83.10
68766;DHT22;55756;45.582;11.484;2022-12-11T04:53:52;6.70;83.50
68766;DHT22;55756;45.582;11.484;2022-12-11T04:56:18;6.70;83.80
68766;DHT22;55756;45.582;11.484;2022-12-11T04:58:44;6.80;83.70
68766;DHT22;55756;45.582;11.484;2022-12-11T05:01:11;6.70;83.90
68766;DHT22;55756;45.582;11.484;2022-12-11T05:03:37;6.70;84.10
68766;DHT22;55756;45.582;11.484;2022-12-11T05:06:03;6.70;83.70
68766;DHT22;55756;45.582;11.484;2022-12-11T05:08:29;6.60;83.40
68766;DHT22;55756;45.582;11.484;2022-12-11T05:10:58;6.70;83.70
68766;DHT22;55756;45.582;11.484;2022-12-11T05:13:24;6.60;83.40
68766;DHT22;55756;45.582;11.484;2022-12-11T05:15:50;6.60;83.40
68766;DHT22;55756;45.582;11.484;2022-12-11T05:18:16;6.70;83.60
68766;DHT22;55756;45.582;11.484;2022-12-11T05:20:41;6.60;83.40
68766;DHT22;55756;45.582;11.484;2022-12-11T05:23:07;6.50;83.10
68766;DHT22;55756;45.582;11.484;2022-12-11T05:25:33;6.60;83.50
68766;DHT22;55756;45.582;11.484;2022-12-11T05:27:58;6.60;83.50
68766;DHT22;55756;45.582;11.484;2022-12-11T05:30:24;6.50;83.40
68766;DHT22;55756;45.582;11.484;2022-12-11T05:32:50;6.50;83.40
68766;DHT22;55756;45.582;11.484;2022-12-11T05:35:15;6.50;83.20
68766;DHT22;55756;45.582;11.484;2022-12-11T05:37:41;6.40;83.50
68766;DHT22;55756;45.582;11.484;2022-12-11T05:40:07;6.40;83.10
68766;DHT22;55756;45.582;11.484;2022-12-11T05:42:33;6.40;83.30
68766;DHT22;55756;45.582;11.484;2022-12-11T05:44:59;6.20;83.00
68766;DHT22;55756;45.582;11.484;2022-12-11T05:47:24;6.00;83.30
68766;DHT22;55756;45.582;11.484;2022-12-11T05:49:50;6.00;83.30
68766;DHT22;55756;45.582;11.484;2022-12-11T05:52:16;5.80;84.20
68766;DHT22;55756;45.582;11.484;2022-12-11T05:54:41;5.80;83.70
68766;DHT22;55756;45.582;11.484;2022-12-11T05:57:07;5.70;84.40
68766;DHT22;55756;45.582;11.484;2022-12-11T05:59:33;5.80;84.70
68766;DHT22;55756;45.582;11.484;2022-12-11T06:01:59;6.00;84.70
68766;DHT22;55756;45.582;11.484;2022-12-11T06:04:25;6.10;84.70
68766;DHT22;55756;45.582;11.484;2022-12-11T06:06:52;6.10;83.80
68766;DHT22;55756;45.582;11.484;2022-12-11T06:09:18;6.10;84.20
68766;DHT22;55756;45.582;11.484;2022-12-11T06:11:44;6.20;83.80
68766;DHT22;55756;45.582;11.484;2022-12-11T06:14:10;6.10;83.20
68766;DHT22;55756;45.582;11.484;2022-12-11T06:16:36;6.20;83.80
68766;DHT22;55756;45.582;11.484;2022-12-11T06:19:01;6.10;83.10
68766;DHT22;55756;45.582;11.484;2022-12-11T06:21:28;6.00;83.30
68766;DHT22;55756;45.582;11.484;2022-12-11T06:23:55;6.10;83.40
68766;DHT22;55756;45.582;11.484;2022-12-11T06:26:21;6.10;82.90
68766;DHT22;55756;45.582;11.484;2022-12-11T06:28:47;6.10;83.10
68766;DHT22;55756;45.582;11.484;2022-12-11T06:31:13;6.10;82.50
68766;DHT22;55756;45.582;11.484;2022-12-11T06:33:39;6.10;82.20
68766;DHT22;55756;45.582;11.484;2022-12-11T06:36:06;6.00;81.70
68766;DHT22;55756;45.582;11.484;2022-12-11T06:38:32;5.80;80.80
68766;DHT22;55756;45.582;11.484;2022-12-11T06:40:59;5.70;81.10
68766;DHT22;55756;45.582;11.484;2022-12-11T06:43:25;5.70;80.70
68766;DHT22;55756;45.582;11.484;2022-12-11T06:45:51;5.60;80.80
68766;DHT22;55756;45.582;11.484;2022-12-11T06:48:16;5.60;80.70
68766;DHT22;55756;45.582;11.484;2022-12-11T06:50:42;5.40;80.10
68766;DHT22;55756;45.582;11.484;2022-12-11T06:53:08;5.30;80.60
68766;DHT22;55756;45.582;11.484;2022-12-11T06:55:35;5.40;81.20
68766;DHT22;55756;45.582;11.484;2022-12-11T06:58:01;5.40;81.90
68766;DHT22;55756;45.582;11.484;2022-12-11T07:00:26;5.30;83.10
68766;DHT22;55756;45.582;11.484;2022-12-11T07:02:52;5.30;83.30
68766;DHT22;55756;45.582;11.484;2022-12-11T07:05:18;5.30;83.00
68766;DHT22;55756;45.582;11.484;2022-12-11T07:07:43;5.30;82.30
68766;DHT22;55756;45.582;11.484;2022-12-11T07:10:09;5.40;82.50
68766;DHT22;55756;45.582;11.484;2022-12-11T07:12:35;5.50;82.70
68766;DHT22;55756;45.582;11.484;2022-12-11T07:15:01;5.50;82.40
68766;DHT22;55756;45.582;11.484;2022-12-11T07:17:27;5.40;81.90
68766;DHT22;55756;45.582;11.484;2022-12-11T07:19:53;5.40;82.30
68766;DHT22;55756;45.582;11.484;2022-12-11T07:22:19;5.40;82.80
68766;DHT22;55756;45.582;11.484;2022-12-11T07:24:44;5.40;82.80
68766;DHT22;55756;45.582;11.484;2022-12-11T07:27:10;5.50;82.70
68766;DHT22;55756;45.582;11.484;2022-12-11T07:29:36;5.50;82.70
68766;DHT22;55756;45.582;11.484;2022-12-11T07:32:01;5.40;83.20
68766;DHT22;55756;45.582;11.484;2022-12-11T07:34:27;5.30;83.60
68766;DHT22;55756;45.582;11.484;2022-12-11T07:36:53;5.30;83.70
68766;DHT22;55756;45.582;11.484;2022-12-11T07:39:18;5.30;84.00
68766;DHT22;55756;45.582;11.484;2022-12-11T07:41:44;5.20;84.20
68766;DHT22;55756;45.582;11.484;2022-12-11T07:44:11;5.30;84.40
68766;DHT22;55756;45.582;11.484;2022-12-11T07:46:37;5.40;84.10
68766;DHT22;55756;45.582;11.484;2022-12-11T07:49:03;5.30;83.70
68766;DHT22;55756;45.582;11.484;2022-12-11T07:51:30;5.20;84.00
68766;DHT22;55756;45.582;11.484;2022-12-11T07:54:00;5.30;84.20
68766;DHT22;55756;45.582;11.484;2022-12-11T07:56:27;5.30;84.00
68766;DHT22;55756;45.582;11.484;2022-12-11T07:58:53;5.30;84.00
68766;DHT22;55756;45.582;11.484;2022-12-11T08:01:19;5.40;84.10
68766;DHT22;55756;45.582;11.484;2022-12-11T08:03:45;5.40;83.60
68766;DHT22;55756;45.582;11.484;2022-12-11T08:06:12;5.50;83.50
68766;DHT22;55756;45.582;11.484;2022-12-11T08:08:38;5.50;83.00
68766;DHT22;55756;45.582;11.484;2022-12-11T08:11:06;5.50;82.80
68766;DHT22;55756;45.582;11.484;2022-12-11T08:13:32;5.60;81.60
68766;DHT22;55756;45.582;11.484;2022-12-11T08:15:58;5.50;82.00
68766;DHT22;55756;45.582;11.484;2022-12-11T08:18:27;5.60;81.40
68766;DHT22;55756;45.582;11.484;2022-12-11T08:20:52;5.60;81.00
68766;DHT22;55756;45.582;11.484;2022-12-11T08:23:20;5.70;80.80
68766;DHT22;55756;45.582;11.484;2022-12-11T08:25:46;5.70;80.90
68766;DHT22;55756;45.582;11.484;2022-12-11T08:28:12;5.70;80.10
68766;DHT22;55756;45.582;11.484;2022-12-11T08:30:38;5.70;80.20
68766;DHT22;55756;45.582;11.484;2022-12-11T08:33:05;5.60;80.00
68766;DHT22;55756;45.582;11.484;2022-12-11T08:35:31;5.60;79.70
68766;DHT22;55756;45.582;11.484;2022-12-11T08:37:57;5.60;79.90
68766;DHT22;55756;45.582;11.484;2022-12-11T08:40:22;5.60;78.40
68766;DHT22;55756;45.582;11.484;2022-12-11T08:42:48;5.60;78.00
68766;DHT22;55756;45.582;11.484;2022-12-11T08:45:14;5.60;78.30
68766;DHT22;55756;45.582;11.484;2022-12-11T08:47:40;5.60;78.10
68766;DHT22;55756;45.582;11.484;2022-12-11T08:50:06;5.60;78.40
68766;DHT22;55756;45.582;11.484;2022-12-11T08:52:35;5.70;78.40
68766;DHT22;55756;45.582;11.484;2022-12-11T08:55:01;5.70;78.80
68766;DHT22;55756;45.582;11.484;2022-12-11T08:57:27;5.70;79.60
68766;DHT22;55756;45.582;11.484;2022-12-11T08:59:52;5.70;80.10
68766;DHT22;55756;45.582;11.484;2022-12-11T09:02:18;5.80;80.40
68766;DHT22;55756;45.582;11.484;2022-12-11T09:04:44;5.90;80.80
68766;DHT22;55756;45.582;11.484;2022-12-11T09:07:09;5.90;80.70
68766;DHT22;55756;45.582;11.484;2022-12-11T09:09:35;5.90;80.60
68766;DHT22;55756;45.582;11.484;2022-12-11T09:12:01;6.00;80.90
68766;DHT22;55756;45.582;11.484;2022-12-11T09:14:29;6.00;80.10
68766;DHT22;55756;45.582;11.484;2022-12-11T09:16:54;6.10;79.60
68766;DHT22;55756;45.582;11.484;2022-12-11T09:19:20;6.00;79.60
68766;DHT22;55756;45.582;11.484;2022-12-11T09:21:46;6.10;79.00
68766;DHT22;55756;45.582;11.484;2022-12-11T09:24:12;6.20;79.10
68766;DHT22;55756;45.582;11.484;2022-12-11T09:26:38;6.40;79.30
68766;DHT22;55756;45.582;11.484;2022-12-11T09:29:04;6.50;78.60
68766;DHT22;55756;45.582;11.484;2022-12-11T09:31:31;6.60;79.00
68766;DHT22;55756;45.582;11.484;2022-12-11T09:34:02;6.60;78.30
68766;DHT22;55756;45.582;11.484;2022-12-11T09:36:28;6.70;77.60
68766;DHT22;55756;45.582;11.484;2022-12-11T09:38:54;6.70;77.50
68766;DHT22;55756;45.582;11.484;2022-12-11T09:46:15;6.40;78.70
68766;DHT22;55756;45.582;11.484;2022-12-11T09:48:41;6.30;79.90
68766;DHT22;55756;45.582;11.484;2022-12-11T09:51:17;6.30;80.40
68766;DHT22;55756;45.582;11.484;2022-12-11T09:53:43;6.20;80.80
68766;DHT22;55756;45.582;11.484;2022-12-11T09:56:17;6.10;80.60
68766;DHT22;55756;45.582;11.484;2022-12-11T10:09:13;6.40;81.40
68766;DHT22;55756;45.582;11.484;2022-12-11T10:11:53;6.50;81.10
68766;DHT22;55756;45.582;11.484;2022-12-11T10:16:53;6.50;80.60
68766;DHT22;55756;45.582;11.484;2022-12-11T10:19:23;6.50;81.20
68766;DHT22;55756;45.582;11.484;2022-12-11T10:21:50;6.60;81.40
68766;DHT22;55756;45.582;11.484;2022-12-11T10:24:19;6.50;81.80
68766;DHT22;55756;45.582;11.484;2022-12-11T10:26:46;6.50;81.30
68766;DHT22;55756;45.582;11.484;2022-12-11T10:29:13;6.50;81.50
68766;DHT22;55756;45.582;11.484;2022-12-11T10:36:48;6.30;82.10
68766;DHT22;55756;45.582;11.484;2022-12-11T10:39:15;6.50;82.30
68766;DHT22;55756;45.582;11.484;2022-12-11T10:41:42;6.70;82.10
68766;DHT22;55756;45.582;11.484;2022-12-11T10:46:40;6.80;81.20
68766;DHT22;55756;45.582;11.484;2022-12-11T10:49:17;6.80;80.80
68766;DHT22;55756;45.582;11.484;2022-12-11T10:51:44;7.00;80.40
68766;DHT22;55756;45.582;11.484;2022-12-11T10:56:43;7.10;79.50
68766;DHT22;55756;45.582;11.484;2022-12-11T10:59:52;7.20;79.30
68766;DHT22;55756;45.582;11.484;2022-12-11T11:01:59;7.30;78.70
68766;DHT22;55756;45.582;11.484;2022-12-11T11:04:29;7.30;78.60
68766;DHT22;55756;45.582;11.484;2022-12-11T11:07:17;7.20;77.30
68766;DHT22;55756;45.582;11.484;2022-12-11T11:09:43;7.00;76.30
68766;DHT22;55756;45.582;11.484;2022-12-11T11:12:21;6.60;73.40
68766;DHT22;55756;45.582;11.484;2022-12-11T11:14:57;6.40;73.30
68766;DHT22;55756;45.582;11.484;2022-12-11T11:17:23;6.30;76.20
68766;DHT22;55756;45.582;11.484;2022-12-11T11:19:48;6.20;76.00
68766;DHT22;55756;45.582;11.484;2022-12-11T11:22:15;6.10;75.60
68766;DHT22;55756;45.582;11.484;2022-12-11T11:27:12;6.20;76.50
68766;DHT22;55756;45.582;11.484;2022-12-11T11:29:38;6.10;78.10
68766;DHT22;55756;45.582;11.484;2022-12-11T11:34:40;6.00;77.40
68766;DHT22;55756;45.582;11.484;2022-12-11T11:37:14;5.90;78.20
68766;DHT22;55756;45.582;11.484;2022-12-11T11:39:46;6.10;78.60
68766;DHT22;55756;45.582;11.484;2022-12-11T11:42:14;6.20;77.60
68766;DHT22;55756;45.582;11.484;2022-12-11T11:44:44;6.30;76.80
68766;DHT22;55756;45.582;11.484;2022-12-11T11:47:22;6.30;75.40
68766;DHT22;55756;45.582;11.484;2022-12-11T11:49:52;6.10;75.60
68766;DHT22;55756;45.582;11.484;2022-12-11T11:52:22;6.00;75.90
68766;DHT22;55756;45.582;11.484;2022-12-11T11:57:26;5.90;77.90
68766;DHT22;55756;45.582;11.484;2022-12-11T11:59:55;5.90;78.90
68766;DHT22;55756;45.582;11.484;2022-12-11T12:02:22;6.00;78.90
68766;DHT22;55756;45.582;11.484;2022-12-11T12:04:48;5.90;79.10
68766;DHT22;55756;45.582;11.484;2022-12-11T12:10:31;5.80;80.40
68766;DHT22;55756;45.582;11.484;2022-12-11T12:13:05;5.90;81.20
68766;DHT22;55756;45.582;11.484;2022-12-11T12:15:47;5.90;81.40
68766;DHT22;55756;45.582;11.484;2022-12-11T12:18:36;5.80;81.50
68766;DHT22;55756;45.582;11.484;2022-12-11T12:26:26;5.50;82.50
68766;DHT22;55756;45.582;11.484;2022-12-11T12:39:18;5.60;83.60
68766;DHT22;55756;45.582;11.484;2022-12-11T12:44:16;5.50;83.60
68766;DHT22;55756;45.582;11.484;2022-12-11T12:46:45;5.60;84.30
68766;DHT22;55756;45.582;11.484;2022-12-11T12:49:31;5.50;83.90
68766;DHT22;55756;45.582;11.484;2022-12-11T12:51:58;5.70;83.80
68766;DHT22;55756;45.582;11.484;2022-12-11T12:54:25;5.60;82.90
68766;DHT22;55756;45.582;11.484;2022-12-11T12:56:51;5.50;82.90
68766;DHT22;55756;45.582;11.484;2022-12-11T12:59:24;5.50;83.20
68766;DHT22;55756;45.582;11.484;2022-12-11T13:01:50;5.50;82.80
68766;DHT22;55756;45.582;11.484;2022-12-11T13:04:36;5.50;82.60
68766;DHT22;55756;45.582;11.484;2022-12-11T13:07:13;5.70;82.50
68766;DHT22;55756;45.582;11.484;2022-12-11T13:09:40;5.90;82.50
68766;DHT22;55756;45.582;11.484;2022-12-11T13:12:13;5.90;81.50
68766;DHT22;55756;45.582;11.484;2022-12-11T13:14:39;6.00;81.90
68766;DHT22;55756;45.582;11.484;2022-12-11T13:19:47;5.80;81.70
68766;DHT22;55756;45.582;11.484;2022-12-11T13:30:03;5.70;81.20
68766;DHT22;55756;45.582;11.484;2022-12-11T13:32:29;5.70;81.70
68766;DHT22;55756;45.582;11.484;2022-12-11T13:34:59;5.50;81.80
68766;DHT22;55756;45.582;11.484;2022-12-11T13:37:32;5.40;82.50
68766;DHT22;55756;45.582;11.484;2022-12-11T13:40:03;5.40;82.40
68766;DHT22;55756;45.582;11.484;2022-12-11T13:42:34;5.50;82.30
68766;DHT22;55756;45.582;11.484;2022-12-11T13:45:00;5.50;82.50
68766;DHT22;55756;45.582;11.484;2022-12-11T13:47:27;5.50;82.80
68766;DHT22;55756;45.582;11.484;2022-12-11T13:49:53;5.50;82.60
68766;DHT22;55756;45.582;11.484;2022-12-11T13:52:21;5.40;82.80
68766;DHT22;55756;45.582;11.484;2022-12-11T13:54:48;5.50;83.20
68766;DHT22;55756;45.582;11.484;2022-12-11T13:57:16;5.40;83.70
68766;DHT22;55756;45.582;11.484;2022-12-11T13:59:46;5.40;84.10
68766;DHT22;55756;45.582;11.484;2022-12-11T14:02:20;5.40;83.00
68766;DHT22;55756;45.582;11.484;2022-12-11T14:04:47;5.40;83.00
68766;DHT22;55756;45.582;11.484;2022-12-11T14:07:14;5.50;82.90
68766;DHT22;55756;45.582;11.484;2022-12-11T14:09:42;5.60;83.00
68766;DHT22;55756;45.582;11.484;2022-12-11T14:12:19;5.70;83.30
68766;DHT22;55756;45.582;11.484;2022-12-11T14:14:48;5.80;82.90
68766;DHT22;55756;45.582;11.484;2022-12-11T14:17:18;5.90;83.30
68766;DHT22;55756;45.582;11.484;2022-12-11T14:19:46;5.90;83.40
68766;DHT22;55756;45.582;11.484;2022-12-11T14:22:20;6.00;83.30
68766;DHT22;55756;45.582;11.484;2022-12-11T14:24:50;5.90;82.70
68766;DHT22;55756;45.582;11.484;2022-12-11T14:27:16;5.90;81.70
68766;DHT22;55756;45.582;11.484;2022-12-11T14:29:43;5.60;80.00
68766;DHT22;55756;45.582;11.484;2022-12-11T14:32:12;5.50;80.40
68766;DHT22;55756;45.582;11.484;2022-12-11T14:34:42;5.40;79.80
68766;DHT22;55756;45.582;11.484;2022-12-11T14:37:09;5.40;79.50
68766;DHT22;55756;45.582;11.484;2022-12-11T14:39:39;5.40;79.20
68766;DHT22;55756;45.582;11.484;2022-12-11T14:42:16;5.30;78.90
68766;DHT22;55756;45.582;11.484;2022-12-11T14:44:50;5.30;78.50
68766;DHT22;55756;45.582;11.484;2022-12-11T14:47:21;5.30;78.10
68766;DHT22;55756;45.582;11.484;2022-12-11T14:49:50;5.30;77.80
68766;DHT22;55756;45.582;11.484;2022-12-11T14:52:24;5.20;78.10
68766;DHT22;55756;45.582;11.484;2022-12-11T14:54:55;5.10;78.50
68766;DHT22;55756;45.582;11.484;2022-12-11T14:57:23;5.10;78.60
68766;DHT22;55756;45.582;11.484;2022-12-11T14:59:51;5.10;78.80
68766;DHT22;55756;45.582;11.484;2022-12-11T15:02:24;5.10;78.80
68766;DHT22;55756;45.582;11.484;2022-12-11T15:05:23;5.10;78.70
68766;DHT22;55756;45.582;11.484;2022-12-11T15:07:52;5.10;78.60
68766;DHT22;55756;45.582;11.484;2022-12-11T15:10:26;5.10;78.70
68766;DHT22;55756;45.582;11.484;2022-12-11T15:12:52;5.10;79.40
68766;DHT22;55756;45.582;11.484;2022-12-11T15:15:18;5.00;79.00
68766;DHT22;55756;45.582;11.484;2022-12-11T15:17:45;5.00;79.20
68766;DHT22;55756;45.582;11.484;2022-12-11T15:20:19;5.10;79.10
68766;DHT22;55756;45.582;11.484;2022-12-11T15:22:46;5.10;78.70
68766;DHT22;55756;45.582;11.484;2022-12-11T15:25:22;5.00;79.00
68766;DHT22;55756;45.582;11.484;2022-12-11T15:27:51;5.00;79.10
68766;DHT22;55756;45.582;11.484;2022-12-11T15:32:44;5.00;79.00
68766;DHT22;55756;45.582;11.484;2022-12-11T15:35:23;4.90;79.00
68766;DHT22;55756;45.582;11.484;2022-12-11T15:37:56;4.90;79.00
68766;DHT22;55756;45.582;11.484;2022-12-11T15:40:22;4.90;79.00
68766;DHT22;55756;45.582;11.484;2022-12-11T15:42:48;4.80;79.10
68766;DHT22;55756;45.582;11.484;2022-12-11T15:45:15;4.80;79.40
68766;DHT22;55756;45.582;11.484;2022-12-11T15:47:42;4.80;79.40
68766;DHT22;55756;45.582;11.484;2022-12-11T15:50:15;4.90;79.60
68766;DHT22;55756;45.582;11.484;2022-12-11T15:52:42;4.80;79.40
68766;DHT22;55756;45.582;11.484;2022-12-11T15:55:08;4.80;79.70
68766;DHT22;55756;45.582;11.484;2022-12-11T15:57:33;4.80;80.00
68766;DHT22;55756;45.582;11.484;2022-12-11T15:59:59;4.80;80.00
68766;DHT22;55756;45.582;11.484;2022-12-11T16:02:26;4.80;80.10
68766;DHT22;55756;45.582;11.484;2022-12-11T16:04:54;4.80;80.10
68766;DHT22;55756;45.582;11.484;2022-12-11T16:07:20;4.80;80.30
68766;DHT22;55756;45.582;11.484;2022-12-11T16:09:46;4.80;80.60
68766;DHT22;55756;45.582;11.484;2022-12-11T16:12:12;4.70;80.80
68766;DHT22;55756;45.582;11.484;2022-12-11T16:14:42;4.60;80.80
68766;DHT22;55756;45.582;11.484;2022-12-11T16:17:08;4.60;80.90
68766;DHT22;55756;45.582;11.484;2022-12-11T16:19:34;4.60;80.60
68766;DHT22;55756;45.582;11.484;2022-12-11T16:22:00;4.60;80.70
68766;DHT22;55756;45.582;11.484;2022-12-11T16:24:26;4.60;81.20
68766;DHT22;55756;45.582;11.484;2022-12-11T16:26:52;4.60;81.20
68766;DHT22;55756;45.582;11.484;2022-12-11T16:29:17;4.60;81.10
68766;DHT22;55756;45.582;11.484;2022-12-11T16:31:43;4.50;81.10
68766;DHT22;55756;45.582;11.484;2022-12-11T16:34:09;4.50;81.00
68766;DHT22;55756;45.582;11.484;2022-12-11T16:36:35;4.50;80.80
68766;DHT22;55756;45.582;11.484;2022-12-11T16:39:00;4.60;81.00
68766;DHT22;55756;45.582;11.484;2022-12-11T16:41:26;4.60;81.10
68766;DHT22;55756;45.582;11.484;2022-12-11T16:43:52;4.70;81.10
68766;DHT22;55756;45.582;11.484;2022-12-11T16:46:19;4.70;81.00
68766;DHT22;55756;45.582;11.484;2022-12-11T16:48:45;4.70;81.20
68766;DHT22;55756;45.582;11.484;2022-12-11T16:51:10;4.80;82.20
68766;DHT22;55756;45.582;11.484;2022-12-11T16:53:36;4.70;81.70
68766;DHT22;55756;45.582;11.484;2022-12-11T16:56:01;4.80;81.20
68766;DHT22;55756;45.582;11.484;2022-12-11T16:58:28;4.80;80.60
68766;DHT22;55756;45.582;11.484;2022-12-11T17:00:54;4.70;80.40
68766;DHT22;55756;45.582;11.484;2022-12-11T17:03:28;4.70;80.70
68766;DHT22;55756;45.582;11.484;2022-12-11T17:05:54;4.70;80.70
68766;DHT22;55756;45.582;11.484;2022-12-11T17:08:20;4.70;80.70
68766;DHT22;55756;45.582;11.484;2022-12-11T17:10:46;4.70;80.90